Time;durP1;ratioP1;P1;durP2;ratioP2;P2;SDS_P1;SDS_P2;PMS_P1;PMS_P2;Temp;Humidity;BMP_temperature;BMP_pressure;BME280_temperature;BME280_humidity;BME280_pressure;Samples;Min_cycle;Max_cycle;Signal;HPM_P1;HPM_P2
2022/05/15 00:02:13;;;;;;;;;;;11.20;99.90;;;;;;5011086;28;20038;-65
2022/05/15 00:04:39;;;;;;;24.92;7.47;;;11.20;99.90;;;;;;4998455;28;19968;-63
2022/05/15 00:07:06;;;;;;;23.70;8.95;;;11.20;99.90;;;;;;4995296;28;20109;-65
2022/05/15 00:09:32;;;;;;;32.58;11.25;;;11.20;99.90;;;;;;4989791;28;20081;-65
2022/05/15 00:11:58;;;;;;;29.95;8.93;;;11.20;99.90;;;;;;4984870;28;20052;-65
2022/05/15 00:14:24;;;;;;;32.38;10.20;;;11.20;99.90;;;;;;5003857;28;20037;-65
2022/05/15 00:16:50;;;;;;;29.67;9.65;;;11.10;99.90;;;;;;4987667;28;20475;-64
2022/05/15 00:19:16;;;;;;;32.08;9.55;;;11.00;99.90;;;;;;4980738;28;20041;-65
2022/05/15 00:21:41;;;;;;;30.38;9.65;;;11.00;99.90;;;;;;4980201;28;20052;-64
2022/05/15 00:24:07;;;;;;;31.02;10.82;;;11.00;99.90;;;;;;5005489;28;20180;-61
2022/05/15 00:26:34;;;;;;;26.38;10.50;;;10.90;99.90;;;;;;4992633;28;20157;-64
2022/05/15 00:29:00;;;;;;;23.90;9.73;;;10.90;99.90;;;;;;4997969;28;20047;-60
2022/05/15 00:31:26;;;;;;;23.60;8.68;;;10.90;99.90;;;;;;4990117;28;20037;-62
2022/05/15 00:33:52;;;;;;;30.58;10.25;;;10.90;99.90;;;;;;4993229;28;20042;-64
2022/05/15 00:36:18;;;;;;;34.47;11.25;;;10.90;99.90;;;;;;4997123;28;20048;-62
2022/05/15 00:38:44;;;;;;;31.90;9.80;;;10.90;99.90;;;;;;4995951;28;20113;-64
2022/05/15 00:41:11;;;;;;;24.20;9.15;;;10.90;99.90;;;;;;4995917;28;20696;-64
2022/05/15 00:43:47;;;;;;;29.52;9.80;;;10.80;99.90;;;;;;4982790;28;20060;-61
2022/05/15 00:46:23;;;;;;;32.08;10.23;;;10.80;99.90;;;;;;4983501;28;20049;-65
2022/05/15 00:48:51;;;;;;;23.65;8.15;;;10.80;99.90;;;;;;4985023;28;21333;-64
2022/05/15 00:51:37;;;;;;;29.10;8.82;;;10.80;99.90;;;;;;4969358;28;20063;-66
2022/05/15 00:54:23;;;;;;;23.48;8.15;;;10.80;99.90;;;;;;4993334;28;20099;-68
2022/05/15 00:57:26;;;;;;;20.15;7.72;;;10.70;99.90;;;;;;4985291;28;20069;-66
2022/05/15 01:00:04;;;;;;;27.25;9.27;;;10.70;99.90;;;;;;4999850;28;20121;-66
2022/05/15 01:02:35;;;;;;;25.25;8.82;;;10.70;99.90;;;;;;4971070;28;20046;-67
2022/05/15 01:05:02;;;;;;;23.42;8.82;;;10.60;99.90;;;;;;4988958;28;20049;-69
2022/05/15 01:07:28;;;;;;;21.55;9.00;;;10.60;99.90;;;;;;4987765;28;20045;-67
2022/05/15 01:09:54;;;;;;;24.35;8.55;;;10.60;99.90;;;;;;4998035;28;20495;-63
2022/05/15 01:12:21;;;;;;;26.65;8.35;;;10.50;99.90;;;;;;4991989;28;20790;-62
2022/05/15 01:14:48;;;;;;;28.65;8.07;;;10.50;99.90;;;;;;4988312;28;20045;-69
2022/05/15 01:17:14;;;;;;;26.42;8.23;;;10.50;99.90;;;;;;4995760;28;20520;-67
2022/05/15 01:19:43;;;;;;;25.15;8.88;;;10.40;99.90;;;;;;4989809;28;20573;-65
2022/05/15 01:22:11;;;;;;;21.85;8.63;;;10.40;99.90;;;;;;4984060;28;20041;-64
2022/05/15 01:24:37;;;;;;;19.58;7.90;;;10.40;99.90;;;;;;4972563;28;20056;-65
2022/05/15 01:27:07;;;;;;;22.35;7.82;;;10.40;99.90;;;;;;4992237;28;20048;-68
2022/05/15 01:29:36;;;;;;;26.98;8.82;;;10.30;99.90;;;;;;4988187;28;20057;-61
2022/05/15 01:32:03;;;;;;;22.98;7.45;;;10.20;99.90;;;;;;4977382;28;20065;-62
2022/05/15 01:34:29;;;;;;;22.25;8.65;;;10.30;99.90;;;;;;4973375;28;20041;-63
2022/05/15 01:36:55;;;;;;;20.05;8.15;;;10.20;99.90;;;;;;4987668;28;20495;-68
2022/05/15 01:39:21;;;;;;;23.33;8.52;;;10.20;99.90;;;;;;4974814;28;20438;-61
2022/05/15 01:41:47;;;;;;;20.35;6.97;;;10.30;99.90;;;;;;4987412;28;20071;-69
2022/05/15 01:44:13;;;;;;;30.45;9.57;;;10.30;99.90;;;;;;5005014;28;20080;-69
2022/05/15 01:46:39;;;;;;;21.27;7.82;;;10.30;99.90;;;;;;5000502;28;20125;-63
2022/05/15 01:49:06;;;;;;;26.88;9.70;;;10.30;99.90;;;;;;4995149;28;20056;-64
2022/05/15 01:51:37;;;;;;;27.83;8.23;;;10.30;99.90;;;;;;4990307;28;20160;-63
2022/05/15 01:54:03;;;;;;;26.23;9.15;;;10.30;99.90;;;;;;5004767;28;21776;-63
2022/05/15 01:56:30;;;;;;;25.13;7.50;;;10.30;99.90;;;;;;4974857;28;20087;-69
2022/05/15 01:58:57;;;;;;;26.92;7.90;;;10.30;99.90;;;;;;4989274;28;20045;-65
2022/05/15 02:01:23;;;;;;;25.58;8.65;;;10.30;99.90;;;;;;4992558;28;20425;-64
2022/05/15 02:03:49;;;;;;;25.00;9.52;;;10.20;99.90;;;;;;4983160;28;20116;-65
2022/05/15 02:06:16;;;;;;;31.58;10.52;;;10.20;99.90;;;;;;4991296;28;20041;-63
2022/05/15 02:08:42;;;;;;;31.75;8.48;;;10.20;99.90;;;;;;4993632;28;20394;-63
2022/05/15 02:11:08;;;;;;;32.63;9.35;;;10.20;99.90;;;;;;4994642;28;20062;-69
2022/05/15 02:13:34;;;;;;;22.60;9.27;;;10.20;99.90;;;;;;5001534;28;20042;-64
2022/05/15 02:16:01;;;;;;;37.35;9.93;;;10.20;99.90;;;;;;5006306;28;20080;-68
2022/05/15 02:18:28;;;;;;;28.88;9.48;;;10.10;99.90;;;;;;4992459;28;20045;-63
2022/05/15 02:20:54;;;;;;;27.80;10.32;;;10.10;99.90;;;;;;4997021;28;20451;-61
2022/05/15 02:23:20;;;;;;;39.20;11.05;;;10.10;99.90;;;;;;4999167;28;20045;-64
2022/05/15 02:25:47;;;;;;;30.58;8.93;;;10.10;99.90;;;;;;4981345;28;20046;-65
2022/05/15 02:28:12;;;;;;;28.45;8.85;;;10.10;99.90;;;;;;4998945;28;22283;-64
2022/05/15 02:30:39;;;;;;;22.55;8.32;;;10.10;99.90;;;;;;4996399;28;20139;-67
2022/05/15 02:33:05;;;;;;;27.42;9.82;;;10.00;99.90;;;;;;4994579;28;20390;-64
2022/05/15 02:35:32;;;;;;;26.95;9.02;;;10.00;99.90;;;;;;5003614;28;20285;-61
2022/05/15 02:37:58;;;;;;;33.03;9.27;;;10.00;99.90;;;;;;5018524;28;20624;-64
2022/05/15 02:40:25;;;;;;;20.83;7.93;;;9.90;99.90;;;;;;4989510;28;20524;-68
2022/05/15 02:42:54;;;;;;;29.10;9.95;;;9.90;99.90;;;;;;4994552;28;20049;-63
2022/05/15 02:45:20;;;;;;;20.95;8.48;;;9.90;99.90;;;;;;4982004;28;22137;-67
2022/05/15 02:47:46;;;;;;;23.90;9.32;;;9.90;99.90;;;;;;4997800;28;20042;-69
2022/05/15 02:52:56;;;;;;;18.85;7.57;;;9.80;99.90;;;;;;4995236;28;20045;-62
2022/05/15 02:55:24;;;;;;;23.73;9.13;;;9.90;99.90;;;;;;4994236;28;20492;-67
2022/05/15 03:00:16;;;;;;;20.27;7.72;;;9.90;99.90;;;;;;5043997;23;20046;-81
2022/05/15 03:02:41;;;;;;;28.17;9.88;;;9.90;99.90;;;;;;4996108;28;20097;-82
2022/05/15 03:05:10;;;;;;;27.63;8.77;;;9.80;99.90;;;;;;4993434;28;20142;-82
2022/05/15 03:07:36;;;;;;;24.02;8.25;;;9.90;99.90;;;;;;5022470;28;20041;-81
2022/05/15 03:10:03;;;;;;;30.88;10.10;;;9.80;99.90;;;;;;5006329;28;22188;-81
2022/05/15 03:12:29;;;;;;;29.92;9.43;;;9.70;99.90;;;;;;4987752;28;20033;-81
2022/05/15 03:14:55;;;;;;;24.60;8.20;;;10.00;99.90;;;;;;5005248;28;20041;-83
2022/05/15 03:17:21;;;;;;;29.20;9.85;;;9.70;99.90;;;;;;4999740;28;20044;-81
2022/05/15 03:19:47;;;;;;;27.75;8.73;;;9.70;99.90;;;;;;4984818;28;20358;-81
2022/05/15 03:22:13;;;;;;;28.95;9.60;;;9.80;99.90;;;;;;5001624;28;20109;-81
2022/05/15 03:24:38;;;;;;;30.17;9.30;;;9.70;99.90;;;;;;5016930;28;20064;-81
2022/05/15 03:27:04;;;;;;;25.70;8.70;;;9.70;99.90;;;;;;5000073;28;20095;-81
2022/05/15 03:29:30;;;;;;;26.80;8.38;;;9.70;99.90;;;;;;4997800;28;20125;-82
2022/05/15 03:31:57;;;;;;;28.48;8.68;;;9.60;99.90;;;;;;4996159;28;20405;-82
2022/05/15 03:34:23;;;;;;;27.88;8.88;;;9.60;99.90;;;;;;4991451;28;20041;-81
2022/05/15 03:36:51;;;;;;;24.65;8.05;;;9.60;99.90;;;;;;5010442;28;20075;-82
2022/05/15 03:39:19;;;;;;;17.85;7.28;;;9.70;99.90;;;;;;4980664;28;20037;-82
2022/05/15 03:41:47;;;;;;;31.55;9.00;;;9.60;99.90;;;;;;4993628;28;20246;-82
2022/05/15 03:44:13;;;;;;;33.05;8.20;;;9.90;99.90;;;;;;5010374;28;20036;-81
2022/05/15 03:46:39;;;;;;;23.35;7.88;;;9.70;99.90;;;;;;5000088;28;20411;-82
2022/05/15 03:49:06;;;;;;;24.40;9.25;;;9.60;99.90;;;;;;4990899;28;20052;-81
2022/05/15 03:51:32;;;;;;;23.77;8.77;;;9.60;99.90;;;;;;5016773;28;20054;-81
2022/05/15 03:53:59;;;;;;;27.25;8.10;;;9.60;99.90;;;;;;5010054;28;20033;-82
2022/05/15 03:59:11;;;;;;;30.77;10.43;;;9.60;99.90;;;;;;4996034;28;20046;-82
2022/05/15 04:01:37;;;;;;;24.83;9.43;;;9.60;99.90;;;;;;4997501;28;20291;-81
2022/05/15 04:04:03;;;;;;;26.00;9.70;;;9.60;99.90;;;;;;4993421;28;20037;-81
2022/05/15 04:06:29;;;;;;;22.63;7.85;;;9.60;99.90;;;;;;4991132;28;20150;-82
2022/05/15 04:08:55;;;;;;;22.42;7.53;;;9.80;99.90;;;;;;5013955;28;20550;-82
2022/05/15 04:11:21;;;;;;;25.55;8.40;;;9.60;99.90;;;;;;5010880;28;20045;-81
2022/05/15 04:13:46;;;;;;;30.58;9.60;;;9.60;99.90;;;;;;4977877;28;20139;-82
2022/05/15 04:16:13;;;;;;;25.30;8.85;;;9.60;99.90;;;;;;4995596;28;20061;-82
2022/05/15 04:18:40;;;;;;;21.77;8.05;;;9.70;99.90;;;;;;4994649;28;20033;-81
2022/05/15 04:21:05;;;;;;;28.00;12.43;;;9.60;99.90;;;;;;4998306;28;20064;-82
2022/05/15 04:23:32;;;;;;;24.67;7.28;;;9.60;99.90;;;;;;5011899;28;20073;-81
2022/05/15 04:25:58;;;;;;;23.08;8.95;;;9.60;99.90;;;;;;4990168;28;20166;-82
2022/05/15 04:28:24;;;;;;;23.65;8.35;;;9.60;99.90;;;;;;5016281;28;20134;-81
2022/05/15 04:30:50;;;;;;;22.23;9.10;;;9.70;99.90;;;;;;5017629;28;20056;-82
2022/05/15 04:33:16;;;;;;;25.50;8.57;;;9.70;99.90;;;;;;5022990;28;20041;-81
2022/05/15 04:35:41;;;;;;;28.95;8.68;;;9.70;99.90;;;;;;4995907;28;20040;-81
2022/05/15 04:38:08;;;;;;;32.42;9.00;;;9.70;99.90;;;;;;5012404;28;20037;-82
2022/05/15 04:40:34;;;;;;;27.30;9.18;;;9.70;99.90;;;;;;5015179;28;20045;-81
2022/05/15 04:42:59;;;;;;;32.20;10.00;;;9.80;99.90;;;;;;5008083;28;20482;-82
2022/05/15 04:45:25;;;;;;;20.95;8.55;;;9.90;99.90;;;;;;4970101;28;20037;-81
2022/05/15 04:47:51;;;;;;;27.25;9.93;;;9.80;99.90;;;;;;5003420;28;20095;-81
2022/05/15 04:50:18;;;;;;;27.77;9.10;;;9.80;99.90;;;;;;5008553;28;20046;-82
2022/05/15 04:52:44;;;;;;;33.92;9.55;;;9.80;99.90;;;;;;4999343;28;20779;-81
2022/05/15 04:55:10;;;;;;;23.48;8.48;;;9.80;99.90;;;;;;4989982;28;20033;-81
2022/05/15 04:57:36;;;;;;;31.20;9.95;;;9.90;99.90;;;;;;4993923;28;20236;-82
2022/05/15 05:00:05;;;;;;;33.42;9.68;;;9.90;99.90;;;;;;4976524;28;20227;-81
2022/05/15 05:02:31;;;;;;;31.23;9.68;;;10.00;99.90;;;;;;5013687;28;20547;-82
2022/05/15 05:04:59;;;;;;;26.40;9.18;;;10.00;99.90;;;;;;4973966;28;20057;-81
2022/05/15 05:07:27;;;;;;;29.00;10.05;;;10.10;99.90;;;;;;5003894;28;20065;-82
2022/05/15 05:09:52;;;;;;;33.08;10.27;;;10.10;99.90;;;;;;5012053;28;20438;-82
2022/05/15 05:12:18;;;;;;;25.35;8.40;;;10.20;99.90;;;;;;4995000;28;20037;-82
2022/05/15 05:14:44;;;;;;;30.45;9.55;;;10.60;99.90;;;;;;4986168;28;20046;-82
2022/05/15 05:17:09;;;;;;;22.60;8.93;;;10.30;99.90;;;;;;4996036;28;20041;-82
2022/05/15 05:19:35;;;;;;;23.02;9.15;;;10.30;99.90;;;;;;4996325;28;20042;-81
2022/05/15 05:22:01;;;;;;;33.58;9.75;;;10.40;99.90;;;;;;4994475;28;20048;-82
2022/05/15 05:24:26;;;;;;;27.63;9.32;;;10.50;99.90;;;;;;4981782;28;20044;-82
2022/05/15 05:26:52;;;;;;;31.85;9.68;;;10.50;99.90;;;;;;4997642;28;20063;-82
2022/05/15 05:29:18;;;;;;;32.17;9.00;;;10.60;99.90;;;;;;5014946;28;20045;-80
2022/05/15 05:31:44;;;;;;;34.30;9.90;;;10.70;99.90;;;;;;5012820;28;20541;-81
2022/05/15 05:34:09;;;;;;;24.63;8.07;;;10.80;99.90;;;;;;5003705;28;20069;-82
2022/05/15 05:36:35;;;;;;;25.75;8.98;;;10.90;99.90;;;;;;5002309;28;20052;-81
2022/05/15 05:39:01;;;;;;;28.17;8.98;;;11.00;99.90;;;;;;5000540;28;20053;-80
2022/05/15 05:41:27;;;;;;;30.02;9.40;;;11.10;99.90;;;;;;4985077;28;20519;-80
2022/05/15 05:43:52;;;;;;;28.05;8.15;;;11.20;99.90;;;;;;4994661;28;20055;-81
2022/05/15 05:46:18;;;;;;;27.30;9.45;;;11.20;99.90;;;;;;4981533;28;20060;-81
2022/05/15 05:48:46;;;;;;;27.88;9.57;;;11.30;99.90;;;;;;4995330;28;20069;-82
2022/05/15 05:51:15;;;;;;;29.85;8.98;;;11.40;99.90;;;;;;4972513;28;20046;-82
2022/05/15 05:53:42;;;;;;;29.85;8.50;;;11.50;99.90;;;;;;4994837;28;20120;-82
2022/05/15 05:56:08;;;;;;;32.38;10.25;;;11.60;99.90;;;;;;4993747;28;20038;-82
2022/05/15 05:58:33;;;;;;;28.27;9.13;;;11.70;99.90;;;;;;4989867;28;20537;-82
2022/05/15 06:00:59;;;;;;;28.80;8.35;;;12.10;99.90;;;;;;5004572;28;20041;-82
2022/05/15 06:06:09;;;;;;;23.95;8.93;;;12.10;99.90;;;;;;4999520;28;20041;-82
2022/05/15 06:08:34;;;;;;;28.63;8.48;;;12.20;99.90;;;;;;4987457;28;20496;-81
2022/05/15 06:11:03;;;;;;;27.17;9.45;;;12.30;99.90;;;;;;4996737;28;20038;-82
2022/05/15 06:13:29;;;;;;;21.65;8.05;;;12.40;99.90;;;;;;4977182;28;20037;-81
2022/05/15 06:15:55;;;;;;;23.73;7.88;;;12.50;99.90;;;;;;4980067;28;20052;-82
2022/05/15 06:18:21;;;;;;;26.05;7.63;;;12.60;99.90;;;;;;4984711;28;20085;-81
2022/05/15 06:20:46;;;;;;;24.20;7.55;;;12.60;99.90;;;;;;5003637;28;20045;-82
2022/05/15 06:23:12;;;;;;;29.88;8.77;;;12.70;99.90;;;;;;4973717;28;20078;-82
2022/05/15 06:25:38;;;;;;;32.65;8.35;;;12.80;99.90;;;;;;4994486;28;20123;-82
2022/05/15 06:28:05;;;;;;;30.38;8.52;;;12.90;99.90;;;;;;4990786;28;20052;-83
2022/05/15 06:30:31;;;;;;;31.13;7.78;;;13.00;99.90;;;;;;4987680;28;20041;-83
2022/05/15 06:32:59;;;;;;;30.23;8.50;;;13.20;99.90;;;;;;4992166;28;20048;-84
2022/05/15 06:35:25;;;;;;;30.40;9.15;;;13.20;99.90;;;;;;4986761;28;20041;-84
2022/05/15 06:38:14;;;;;;;23.17;7.97;;;13.30;99.90;;;;;;5019537;28;20038;-84
2022/05/15 06:40:39;;;;;;;25.48;6.47;;;13.40;99.90;;;;;;4999800;28;20053;-85
2022/05/15 06:43:05;;;;;;;23.77;6.82;;;13.50;99.90;;;;;;4985747;28;20042;-83
2022/05/15 06:45:31;;;;;;;23.05;7.15;;;13.60;99.90;;;;;;4980414;28;20128;-84
2022/05/15 06:47:56;;;;;;;25.67;6.78;;;13.70;99.90;;;;;;4973044;28;20040;-84
2022/05/15 06:50:24;;;;;;;30.38;8.57;;;13.80;99.90;;;;;;4993684;28;20045;-84
2022/05/15 06:52:50;;;;;;;26.63;8.07;;;13.90;99.90;;;;;;5006924;28;20499;-84
2022/05/15 06:55:19;;;;;;;25.70;7.15;;;14.00;99.90;;;;;;5007390;28;20466;-82
2022/05/15 06:57:47;;;;;;;29.35;7.88;;;14.10;99.90;;;;;;4989970;28;20063;-84
2022/05/15 07:00:25;;;;;;;28.55;7.68;;;14.20;99.90;;;;;;4986948;28;20049;-84
2022/05/15 07:02:51;;;;;;;25.80;6.93;;;14.30;99.90;;;;;;5002755;28;20037;-84
2022/05/15 07:05:30;;;;;;;25.75;7.35;;;14.40;99.90;;;;;;4997762;28;20048;-83
2022/05/15 07:07:56;;;;;;;21.13;6.18;;;14.50;99.90;;;;;;4992304;28;20404;-84
2022/05/15 07:10:22;;;;;;;25.65;8.05;;;14.70;99.90;;;;;;5000540;28;20045;-84
2022/05/15 07:12:48;;;;;;;20.77;6.15;;;14.70;99.90;;;;;;4978671;28;20132;-84
2022/05/15 07:15:14;;;;;;;22.08;5.63;;;14.80;99.90;;;;;;4991654;28;20518;-83
2022/05/15 07:17:40;;;;;;;21.48;6.50;;;14.90;99.90;;;;;;4983451;28;20076;-84
2022/05/15 07:20:06;;;;;;;19.10;6.72;;;15.10;99.90;;;;;;4994395;28;20045;-84
2022/05/15 07:23:04;;;;;;;25.02;6.95;;;15.20;99.90;;;;;;4989586;28;20383;-84
2022/05/15 07:25:30;;;;;;;22.92;5.60;;;15.40;99.90;;;;;;4950141;28;20046;-83
2022/05/15 07:27:56;;;;;;;21.38;6.57;;;15.40;99.90;;;;;;5005107;28;20048;-84
2022/05/15 07:30:22;;;;;;;24.98;6.07;;;15.50;99.90;;;;;;5019868;28;20037;-84
2022/05/15 07:32:47;;;;;;;25.30;6.97;;;15.60;99.90;;;;;;4999230;28;20479;-84
2022/05/15 07:35:19;;;;;;;26.70;7.13;;;15.60;99.90;;;;;;4996816;28;20492;-86
2022/05/15 07:40:22;;;;;;;19.80;6.53;;;15.90;99.90;;;;;;5077282;22;20498;-65
2022/05/15 07:42:48;;;;;;;19.77;5.90;;;16.10;99.90;;;;;;5059867;28;20390;-63
2022/05/15 07:45:16;;;;;;;19.05;6.22;;;16.10;99.90;;;;;;5065220;28;20344;-64
2022/05/15 07:47:42;;;;;;;23.45;6.63;;;16.20;99.90;;;;;;5058995;28;20582;-63
2022/05/15 07:50:09;;;;;;;23.60;6.35;;;16.30;99.90;;;;;;5050599;28;20041;-63
2022/05/15 07:52:36;;;;;;;17.10;5.70;;;16.40;99.90;;;;;;5029322;28;20036;-64
2022/05/15 07:55:05;;;;;;;21.58;6.00;;;16.50;99.90;;;;;;5046728;22;20045;-44
2022/05/15 07:57:34;;;;;;;19.55;5.40;;;16.70;99.90;;;;;;5028930;28;20038;-44
2022/05/15 08:00:01;;;;;;;20.98;5.65;;;16.80;99.90;;;;;;5028127;28;20433;-46
2022/05/15 08:02:27;;;;;;;27.33;6.28;;;16.80;99.90;;;;;;5013370;28;20068;-45
2022/05/15 08:10:21;;;;;;;18.75;5.25;;;17.00;99.90;;;;;;5027453;28;19917;-45
2022/05/15 08:12:46;;;;;;;18.25;4.93;;;17.20;99.90;;;;;;5032874;28;20382;-46
2022/05/15 08:15:12;;;;;;;14.73;4.60;;;17.30;99.90;;;;;;5028612;28;20046;-47
2022/05/15 08:17:38;;;;;;;17.73;4.88;;;17.50;99.90;;;;;;5028252;28;20037;-47
2022/05/15 08:23:33;;;;;;;16.60;6.10;;;17.50;99.60;;;;;;5020231;28;20046;-46
2022/05/15 08:25:46;;;;;;;16.73;4.88;;;17.70;99.40;;;;;;5023542;28;20042;-47
2022/05/15 08:28:12;;;;;;;20.70;4.88;;;17.90;98.70;;;;;;5020333;28;20064;-49
2022/05/15 08:30:38;;;;;;;21.67;4.80;;;17.90;97.60;;;;;;5019216;28;22194;-45
2022/05/15 08:33:06;;;;;;;20.88;4.95;;;18.10;97.90;;;;;;5021238;28;20073;-46
2022/05/15 08:35:32;;;;;;;16.80;4.85;;;18.10;96.90;;;;;;5000366;28;20485;-50
2022/05/15 08:37:58;;;;;;;19.80;6.22;;;18.20;95.40;;;;;;4999727;28;20045;-48
2022/05/15 08:40:32;;;;;;;18.58;4.88;;;18.20;95.10;;;;;;5020779;28;20087;-47
2022/05/15 08:42:59;;;;;;;20.98;5.78;;;18.20;95.00;;;;;;4999339;28;20345;-44
2022/05/15 08:45:32;;;;;;;19.55;5.28;;;18.20;95.00;;;;;;4993778;28;20037;-46
2022/05/15 08:48:12;;;;;;;19.63;4.65;;;18.20;95.10;;;;;;4993297;28;20053;-46
2022/05/15 08:50:49;;;;;;;17.77;5.30;;;18.20;94.80;;;;;;5005714;28;20091;-46
2022/05/15 08:53:21;;;;;;;16.40;4.57;;;18.30;94.90;;;;;;5015881;28;20076;-45
2022/05/15 08:55:55;;;;;;;19.17;4.82;;;18.50;94.60;;;;;;4998232;28;20073;-45
2022/05/15 08:58:39;;;;;;;17.50;5.30;;;18.60;94.50;;;;;;5026579;28;20517;-48
2022/05/15 09:01:27;;;;;;;20.60;4.72;;;18.90;94.60;;;;;;5074734;22;20322;-84
2022/05/15 09:04:12;;;;;;;17.65;5.35;;;19.10;93.10;;;;;;5025846;28;20036;-84
2022/05/15 09:06:48;;;;;;;13.23;4.75;;;19.20;93.50;;;;;;5018294;28;20068;-83
2022/05/15 09:09:32;;;;;;;17.77;4.88;;;19.20;91.80;;;;;;5017848;28;20080;-82
2022/05/15 09:12:25;;;;;;;15.15;4.97;;;19.30;93.00;;;;;;5012247;28;20132;-84
2022/05/15 09:15:06;;;;;;;14.90;4.38;;;19.50;92.10;;;;;;4992710;28;20045;-84
2022/05/15 09:17:45;;;;;;;14.73;4.22;;;19.60;91.90;;;;;;5045563;28;20045;-83
2022/05/15 09:20:36;;;;;;;13.15;4.28;;;19.60;90.40;;;;;;5034059;28;20057;-83
2022/05/15 09:23:19;;;;;;;17.77;4.60;;;19.60;90.50;;;;;;5001959;28;20051;-83
2022/05/15 09:33:06;;;;;;;21.38;5.78;;;20.20;90.40;;;;;;4956567;28;20145;-84
2022/05/15 09:36:26;;;;;;;21.00;6.93;;;20.10;86.70;;;;;;5010107;28;20124;-84
2022/05/15 09:39:37;;;;;;;15.05;4.38;;;20.00;86.90;;;;;;5011438;28;20529;-84
2022/05/15 09:45:25;;;;;;;17.70;4.53;;;20.30;88.20;;;;;;5016484;28;20052;-84
2022/05/15 09:47:51;;;;;;;16.27;5.28;;;20.40;84.00;;;;;;5033211;28;20257;-84
2022/05/15 09:50:40;;;;;;;16.20;4.25;;;20.60;85.70;;;;;;4998439;28;20280;-84
2022/05/15 09:53:14;;;;;;;15.60;5.05;;;20.70;82.00;;;;;;5021002;28;20044;-85
2022/05/15 09:55:55;;;;;;;17.88;5.07;;;20.90;84.60;;;;;;5001538;28;20477;-84
2022/05/15 09:58:21;;;;;;;15.35;5.15;;;20.90;83.90;;;;;;5016012;28;20111;-85
2022/05/15 10:00:47;;;;;;;18.60;4.22;;;21.00;81.40;;;;;;4998465;28;20041;-85
2022/05/15 10:03:20;;;;;;;18.17;4.90;;;21.00;82.60;;;;;;4982526;28;20116;-85
2022/05/15 10:05:55;;;;;;;;;;;21.20;83.30;;;;;;5003277;28;20129;-88
2022/05/15 10:08:24;;;;;;;14.23;5.10;;;21.30;81.50;;;;;;5004110;28;19924;-85
2022/05/15 10:11:14;;;;;;;20.02;4.97;;;21.50;82.50;;;;;;5015985;28;20037;-89
2022/05/15 10:13:47;;;;;;;15.85;4.75;;;21.60;78.50;;;;;;5004841;28;20046;-86
2022/05/15 10:16:45;;;;;;;14.43;4.20;;;21.50;80.60;;;;;;5020308;28;20044;-84
2022/05/15 10:19:36;;;;;;;16.42;5.07;;;21.70;78.50;;;;;;5018368;28;20037;-86
2022/05/15 10:22:25;;;;;;;17.75;4.97;;;21.60;75.10;;;;;;5021977;28;20136;-87
2022/05/15 10:24:52;;;;;;;14.13;4.80;;;21.60;78.40;;;;;;5008315;28;20032;-87
2022/05/15 10:27:39;;;;;;;17.15;5.15;;;21.70;78.30;;;;;;5006529;28;20041;-85
2022/05/15 10:30:11;;;;;;;13.38;4.65;;;21.60;74.90;;;;;;5010515;28;20049;-85
2022/05/15 10:32:49;;;;;;;18.17;4.82;;;21.50;74.40;;;;;;5008887;28;20153;-85
2022/05/15 10:35:17;;;;;;;15.55;5.45;;;21.30;74.60;;;;;;5009538;28;20071;-84
2022/05/15 10:38:01;;;;;;;16.08;4.93;;;21.30;78.10;;;;;;5019991;28;20102;-85
2022/05/15 10:40:48;;;;;;;16.77;4.75;;;21.50;77.80;;;;;;5008700;28;20075;-85
2022/05/15 10:43:29;;;;;;;14.77;4.22;;;21.60;76.60;;;;;;5023572;28;20427;-85
2022/05/15 10:45:54;;;;;;;18.40;5.25;;;21.80;78.90;;;;;;5019633;28;20099;-85
2022/05/15 10:48:46;;;;;;;13.95;5.88;;;21.90;77.50;;;;;;5028692;28;20458;-86
2022/05/15 10:51:19;;;;;;;17.23;5.30;;;22.20;76.10;;;;;;5020709;28;20103;-86
2022/05/15 10:57:32;;;;;;;17.92;5.75;;;22.00;71.60;;;;;;5025347;28;20809;-85
2022/05/15 11:00:14;;;;;;;18.10;4.85;;;22.00;70.80;;;;;;5046171;28;20047;-86
2022/05/15 11:03:14;;;;;;;15.35;4.70;;;21.90;72.80;;;;;;5041545;28;20573;-85
2022/05/15 11:05:58;;;;;;;15.65;4.78;;;22.00;73.30;;;;;;5034040;28;20036;-85
2022/05/15 11:08:29;;;;;;;;;;;22.00;73.70;;;;;;5013053;28;20762;-86
2022/05/15 11:11:08;;;;;;;15.45;5.05;;;22.20;73.40;;;;;;5041671;28;19978;-86
2022/05/15 11:13:59;;;;;;;15.48;4.93;;;22.40;74.90;;;;;;5035027;28;20073;-86
2022/05/15 11:16:49;;;;;;;16.73;4.18;;;22.60;72.50;;;;;;5044095;28;20041;-86
2022/05/15 11:19:37;;;;;;;15.57;5.13;;;22.80;70.50;;;;;;5035721;28;20045;-85
2022/05/15 11:22:25;;;;;;;17.33;4.45;;;22.70;70.30;;;;;;5026349;28;20525;-85
2022/05/15 11:25:19;;;;;;;13.02;4.72;;;22.70;70.30;;;;;;5030834;28;20075;-85
2022/05/15 11:28:04;;;;;;;14.60;4.68;;;22.80;71.20;;;;;;5016141;28;20033;-85
2022/05/15 11:30:33;;;;;;;18.17;5.00;;;22.80;71.00;;;;;;5039003;28;20336;-85
2022/05/15 11:33:08;;;;;;;17.73;5.55;;;22.80;70.20;;;;;;5041668;28;20030;-85
2022/05/15 11:35:38;;;;;;;19.10;5.03;;;22.80;68.00;;;;;;5014743;28;20493;-85
2022/05/15 11:38:08;;;;;;;18.17;5.40;;;22.60;70.00;;;;;;5016937;28;20102;-84
2022/05/15 11:40:49;;;;;;;14.05;4.80;;;22.40;68.50;;;;;;5013061;28;20039;-85
2022/05/15 11:43:30;;;;;;;18.35;4.38;;;22.70;70.90;;;;;;5030066;28;20117;-86
2022/05/15 11:46:07;;;;;;;13.77;4.28;;;23.00;71.40;;;;;;5026682;28;21061;-86
2022/05/15 11:48:52;;;;;;;14.13;4.38;;;23.30;68.70;;;;;;5028553;28;20044;-84
2022/05/15 11:51:26;;;;;;;18.48;5.22;;;23.20;68.10;;;;;;5031778;28;20044;-86
2022/05/15 11:54:04;;;;;;;12.75;4.30;;;23.30;67.90;;;;;;5029703;28;20571;-85
2022/05/15 11:56:53;;;;;;;15.77;4.55;;;23.30;67.30;;;;;;5031837;28;20033;-86
2022/05/15 11:59:54;;;;;;;17.73;5.15;;;23.30;63.70;;;;;;5015713;28;20055;-86
2022/05/15 12:02:29;;;;;;;15.40;4.72;;;23.20;65.30;;;;;;5014015;28;20135;-86
2022/05/15 12:05:01;;;;;;;12.50;4.68;;;23.30;66.80;;;;;;5022317;28;20066;-85
2022/05/15 12:07:50;;;;;;;13.25;4.68;;;23.50;65.70;;;;;;5013041;28;20037;-84
2022/05/15 12:10:41;;;;;;;13.32;3.78;;;23.60;63.00;;;;;;5007653;28;20052;-85
2022/05/15 12:13:11;;;;;;;14.30;3.90;;;23.60;63.70;;;;;;5021242;28;20395;-84
2022/05/15 12:15:43;;;;;;;15.50;4.57;;;23.60;63.10;;;;;;5009193;28;20029;-83
2022/05/15 12:18:29;;;;;;;14.27;5.15;;;23.80;62.90;;;;;;5014344;28;20042;-86
2022/05/15 12:20:57;;;;;;;10.43;3.40;;;24.00;62.30;;;;;;5020644;28;20072;-86
2022/05/15 12:23:31;;;;;;;11.50;3.67;;;24.00;60.90;;;;;;5031689;28;20528;-85
2022/05/15 12:26:00;;;;;;;13.75;4.05;;;24.00;61.20;;;;;;5019633;28;20041;-86
2022/05/15 12:28:53;;;;;;;12.45;3.80;;;24.10;61.40;;;;;;5027516;28;20041;-86
2022/05/15 12:31:39;;;;;;;9.57;3.60;;;24.20;58.60;;;;;;5007513;28;20037;-85
2022/05/15 12:34:19;;;;;;;15.32;4.43;;;24.20;60.60;;;;;;5021357;28;20036;-84
2022/05/15 12:37:00;;;;;;;12.18;4.03;;;23.90;58.90;;;;;;5018925;28;20044;-85
2022/05/15 12:39:30;;;;;;;15.15;4.30;;;24.00;60.20;;;;;;5014447;28;20388;-85
2022/05/15 12:42:01;;;;;;;14.68;4.35;;;24.10;59.10;;;;;;5002047;28;20048;-84
2022/05/15 12:44:38;;;;;;;12.50;4.55;;;24.40;59.20;;;;;;5009779;28;20040;-84
2022/05/15 12:47:09;;;;;;;14.15;4.88;;;24.40;58.70;;;;;;5017916;28;20049;-84
2022/05/15 12:49:43;;;;;;;10.73;4.00;;;24.50;59.20;;;;;;5012976;28;20036;-83
2022/05/15 12:52:29;;;;;;;15.63;3.47;;;24.40;58.70;;;;;;5000107;28;20037;-83
2022/05/15 12:55:01;;;;;;;10.75;4.05;;;24.50;59.80;;;;;;5012819;28;20522;-84
2022/05/15 12:57:29;;;;;;;14.30;3.97;;;24.80;59.20;;;;;;5016666;28;20211;-84
2022/05/15 12:59:55;;;;;;;16.92;4.28;;;24.90;58.70;;;;;;4998191;28;20040;-84
2022/05/15 13:02:37;;;;;;;9.52;3.45;;;24.90;56.80;;;;;;5018128;28;20052;-83
2022/05/15 13:05:17;;;;;;;16.75;4.00;;;25.00;57.40;;;;;;5038965;28;20099;-79
2022/05/15 13:07:43;;;;;;;16.00;4.32;;;25.30;58.60;;;;;;5011679;28;20116;-80
2022/05/15 13:10:22;;;;;;;13.77;4.13;;;25.20;57.30;;;;;;5026918;28;20148;-80
2022/05/15 13:13:20;;;;;;;13.55;3.88;;;25.30;55.80;;;;;;5009434;28;20116;-83
2022/05/15 13:15:49;;;;;;;13.35;3.72;;;25.50;57.90;;;;;;4994617;28;20038;-81
2022/05/15 13:18:16;;;;;;;10.70;3.95;;;25.30;55.20;;;;;;5014228;28;20029;-82
2022/05/15 13:20:48;;;;;;;9.82;4.07;;;24.90;57.20;;;;;;5033340;28;20037;-81
2022/05/15 13:23:14;;;;;;;14.77;4.43;;;25.20;57.80;;;;;;5029809;28;20041;-80
2022/05/15 13:25:48;;;;;;;12.40;4.30;;;25.40;55.60;;;;;;5021498;28;20415;-79
2022/05/15 13:28:14;;;;;;;11.52;3.35;;;25.60;55.10;;;;;;5016696;28;20510;-81
2022/05/15 13:30:41;;;;;;;13.25;4.03;;;25.30;55.70;;;;;;5028459;28;20044;-80
2022/05/15 13:33:19;;;;;;;10.70;3.58;;;25.30;54.90;;;;;;5003411;28;20980;-82
2022/05/15 13:35:50;;;;;;;14.52;3.83;;;25.40;54.30;;;;;;5025314;28;20033;-81